createdAt,value
2022-09-11T00:01:14.163Z,20.09
2022-09-11T00:03:42.854Z,20.00
2022-09-11T00:06:29.286Z,19.91
2022-09-11T00:09:02.632Z,19.95
2022-09-11T00:11:36.427Z,19.95
2022-09-11T00:14:03.339Z,19.91
2022-09-11T00:16:32.532Z,19.94
2022-09-11T00:19:00.968Z,19.84
2022-09-11T00:21:28.743Z,19.82
2022-09-11T00:23:56.402Z,19.77
2022-09-11T00:26:24.881Z,19.73
2022-09-11T00:28:52.349Z,19.73
2022-09-11T00:31:22.064Z,19.73
2022-09-11T00:33:48.749Z,19.83
2022-09-11T00:36:17.905Z,19.97
2022-09-11T00:38:45.671Z,19.98
2022-09-11T00:41:17.044Z,19.87
2022-09-11T00:43:53.939Z,19.80
2022-09-11T00:46:21.813Z,19.73
2022-09-11T00:48:49.852Z,19.72
2022-09-11T00:51:26.443Z,19.63
2022-09-11T00:53:55.345Z,19.37
2022-09-11T00:56:25.240Z,19.09
2022-09-11T00:58:54.743Z,19.13
2022-09-11T01:01:21.291Z,19.19
2022-09-11T01:03:48.478Z,19.16
2022-09-11T01:06:15.003Z,19.20
2022-09-11T01:08:41.411Z,19.17
2022-09-11T01:11:26.031Z,18.99
2022-09-11T01:14:20.010Z,19.02
2022-09-11T01:17:12.688Z,19.02
2022-09-11T01:20:09.814Z,18.93
2022-09-11T01:22:51.652Z,18.87
2022-09-11T01:25:58.194Z,18.87
2022-09-11T01:28:35.306Z,18.89
2022-09-11T01:31:10.416Z,18.97
2022-09-11T01:33:47.791Z,18.98
2022-09-11T01:36:19.488Z,19.06
2022-09-11T01:38:56.828Z,18.98
2022-09-11T01:41:29.361Z,18.88
2022-09-11T01:44:11.173Z,18.81
2022-09-11T01:46:44.269Z,18.87
2022-09-11T01:49:14.669Z,18.83
2022-09-11T01:51:41.543Z,18.81
2022-09-11T01:54:14.569Z,18.90
2022-09-11T01:57:00.534Z,18.74
2022-09-11T01:59:35.425Z,18.83
2022-09-11T02:02:07.346Z,18.90
2022-09-11T02:04:39.788Z,18.91
2022-09-11T02:07:37.367Z,18.93
2022-09-11T02:10:14.184Z,18.93
2022-09-11T02:12:49.928Z,18.94
2022-09-11T02:15:17.225Z,18.81
2022-09-11T02:18:09.523Z,18.72
2022-09-11T02:20:36.145Z,18.71
2022-09-11T02:23:02.945Z,18.73
2022-09-11T02:25:29.344Z,18.78
2022-09-11T02:27:55.786Z,18.78
2022-09-11T02:30:22.181Z,18.84
2022-09-11T02:32:48.625Z,18.77
2022-09-11T02:35:16.341Z,18.76
2022-09-11T02:38:09.714Z,18.69
2022-09-11T02:40:41.655Z,18.72
2022-09-11T02:43:24.833Z,18.70
2022-09-11T02:46:19.528Z,18.61
2022-09-11T02:48:45.872Z,18.57
2022-09-11T02:51:41.486Z,18.62
2022-09-11T02:54:20.325Z,18.61
2022-09-11T02:56:52.506Z,18.57
2022-09-11T02:59:26.105Z,18.67
2022-09-11T03:01:55.181Z,18.66
2022-09-11T03:04:24.558Z,18.64
2022-09-11T03:06:52.764Z,18.67
2022-09-11T03:09:19.878Z,18.75
2022-09-11T03:11:46.393Z,18.80
2022-09-11T03:14:14.197Z,18.82
2022-09-11T03:16:41.543Z,18.73
2022-09-11T03:19:08.213Z,18.58
2022-09-11T03:21:35.151Z,18.57
2022-09-11T03:24:01.966Z,18.50
2022-09-11T03:26:29.064Z,18.50
2022-09-11T03:28:55.585Z,18.48
2022-09-11T03:31:22.001Z,18.52
2022-09-11T03:33:48.443Z,18.58
2022-09-11T03:36:15.697Z,18.62
2022-09-11T03:38:42.070Z,18.64
2022-09-11T03:41:09.548Z,18.53
2022-09-11T03:43:36.133Z,18.34
2022-09-11T03:46:03.155Z,18.28
2022-09-11T03:48:29.996Z,18.34
2022-09-11T03:50:56.567Z,18.32
2022-09-11T03:53:23.040Z,18.21
2022-09-11T03:55:52.008Z,18.14
2022-09-11T03:58:21.263Z,18.21
2022-09-11T04:00:48.036Z,18.23
2022-09-11T04:03:15.571Z,18.15
2022-09-11T04:05:46.570Z,18.06
2022-09-11T04:08:13.287Z,17.98
2022-09-11T04:10:39.697Z,18.03
2022-09-11T04:13:06.122Z,18.02
2022-09-11T04:15:32.905Z,17.95
2022-09-11T04:18:04.759Z,17.96
2022-09-11T04:20:32.059Z,17.96
2022-09-11T04:22:58.896Z,18.00
2022-09-11T04:25:25.521Z,18.10
2022-09-11T04:27:51.921Z,18.14
2022-09-11T04:30:19.756Z,18.11
2022-09-11T04:32:46.206Z,18.12
2022-09-11T04:35:12.686Z,18.13
2022-09-11T04:37:39.104Z,18.17
2022-09-11T04:40:06.117Z,18.19
2022-09-11T04:42:32.613Z,18.16
2022-09-11T04:44:59.010Z,18.11
2022-09-11T04:47:25.391Z,18.15
2022-09-11T04:49:52.741Z,18.25
2022-09-11T04:52:19.461Z,18.24
2022-09-11T04:54:46.422Z,18.18
2022-09-11T04:57:13.952Z,17.98
2022-09-11T04:59:40.352Z,17.86
2022-09-11T05:02:07.052Z,17.86
2022-09-11T05:04:33.535Z,18.00
2022-09-11T05:07:00.266Z,18.08
2022-09-11T05:09:27.701Z,18.01
2022-09-11T05:11:54.421Z,17.90
2022-09-11T05:14:20.808Z,17.76
2022-09-11T05:16:47.259Z,17.57
2022-09-11T05:19:13.708Z,17.48
2022-09-11T05:21:40.120Z,17.45
2022-09-11T05:24:06.583Z,17.56
2022-09-11T05:26:35.647Z,17.72
2022-09-11T05:29:05.342Z,17.75
2022-09-11T05:31:34.669Z,17.87
2022-09-11T05:34:01.832Z,17.81
2022-09-11T05:36:30.919Z,17.81
2022-09-11T05:38:58.424Z,17.87
2022-09-11T05:41:25.009Z,18.00
2022-09-11T05:43:51.672Z,17.95
2022-09-11T05:46:19.804Z,17.96
2022-09-11T05:48:46.386Z,17.88
2022-09-11T05:51:15.092Z,17.78
2022-09-11T05:53:42.132Z,17.80
2022-09-11T05:56:19.802Z,17.95
2022-09-11T05:58:48.145Z,18.11
2022-09-11T06:01:17.944Z,18.30
2022-09-11T06:03:44.617Z,18.33
2022-09-11T06:06:12.652Z,18.41
2022-09-11T06:08:42.235Z,18.43
2022-09-11T06:11:09.085Z,18.47
2022-09-11T06:13:40.468Z,18.60
2022-09-11T06:16:21.917Z,18.70
2022-09-11T06:18:50.012Z,18.82
2022-09-11T06:21:23.116Z,18.93
2022-09-11T06:23:51.881Z,19.10
2022-09-11T06:26:23.708Z,19.20
2022-09-11T06:28:53.550Z,19.20
2022-09-11T06:31:22.329Z,19.17
2022-09-11T06:33:50.988Z,19.17
2022-09-11T06:36:20.028Z,19.08
2022-09-11T06:38:47.316Z,19.02
2022-09-11T06:41:16.112Z,19.05
2022-09-11T06:43:43.807Z,19.11
2022-09-11T06:46:16.400Z,19.06
2022-09-11T06:48:46.113Z,19.10
2022-09-11T06:51:17.481Z,19.26
2022-09-11T06:53:45.181Z,19.35
2022-09-11T06:56:14.352Z,19.39
2022-09-11T06:58:41.217Z,19.43
2022-09-11T07:01:15.572Z,19.50
2022-09-11T07:03:46.444Z,19.59
2022-09-11T07:06:14.464Z,19.52
2022-09-11T07:08:40.880Z,19.65
2022-09-11T07:11:12.714Z,19.64
2022-09-11T07:13:39.965Z,19.68
2022-09-11T07:16:09.196Z,19.87
2022-09-11T07:18:40.271Z,20.03
2022-09-11T07:21:19.283Z,20.08
2022-09-11T07:23:51.757Z,20.06
2022-09-11T07:26:18.666Z,20.10
2022-09-11T07:28:45.293Z,20.28
2022-09-11T07:31:18.577Z,20.44
2022-09-11T07:33:48.719Z,20.44
2022-09-11T07:36:17.795Z,20.52
2022-09-11T07:38:46.935Z,20.55
2022-09-11T07:41:15.399Z,20.63
2022-09-11T07:43:45.423Z,20.54
2022-09-11T07:46:12.781Z,20.58
2022-09-11T07:48:39.654Z,20.62
2022-09-11T07:51:08.087Z,20.66
2022-09-11T07:53:39.923Z,20.80
2022-09-11T07:56:26.182Z,20.87
2022-09-11T07:58:57.394Z,20.88
2022-09-11T08:01:26.541Z,20.93
2022-09-11T08:03:58.221Z,21.02
2022-09-11T08:06:27.181Z,21.04
2022-09-11T08:08:55.195Z,21.14
2022-09-11T08:11:24.623Z,21.20
2022-09-11T08:13:52.585Z,21.23
2022-09-11T08:16:21.083Z,21.26
2022-09-11T08:18:48.700Z,21.32
2022-09-11T08:21:16.299Z,21.44
2022-09-11T08:23:44.375Z,21.45
2022-09-11T08:26:13.590Z,21.48
2022-09-11T08:28:48.560Z,21.45
2022-09-11T08:31:16.597Z,21.62
2022-09-11T08:33:43.758Z,21.75
2022-09-11T08:36:13.178Z,21.83
2022-09-11T08:41:32.485Z,21.86
2022-09-11T08:44:12.036Z,21.93
2022-09-11T08:46:45.898Z,22.00
2022-09-11T08:49:21.307Z,22.20
2022-09-11T08:51:49.951Z,22.41
2022-09-11T08:54:27.380Z,22.49
2022-09-11T08:56:58.582Z,22.50
2022-09-11T09:00:01.182Z,22.39
2022-09-11T09:02:39.204Z,22.61
2022-09-11T09:05:42.097Z,22.70
2022-09-11T09:08:29.706Z,22.74
2022-09-11T09:11:19.922Z,22.87
2022-09-11T09:13:57.414Z,22.78
2022-09-11T09:16:39.327Z,22.82
2022-09-11T09:19:14.185Z,23.00
2022-09-11T09:21:45.217Z,23.05
2022-09-11T09:24:19.636Z,23.15
2022-09-11T09:26:52.620Z,23.16
2022-09-11T09:29:22.752Z,23.32
2022-09-11T09:32:02.128Z,23.44
2022-09-11T09:34:34.994Z,23.44
2022-09-11T09:37:17.050Z,23.78
2022-09-11T09:39:46.762Z,24.12
2022-09-11T09:42:32.184Z,24.20
2022-09-11T09:45:10.395Z,24.07
2022-09-11T09:47:43.847Z,24.23
2022-09-11T09:50:44.679Z,24.42
2022-09-11T09:53:35.240Z,24.58
2022-09-11T09:56:04.465Z,24.23
2022-09-11T09:58:36.963Z,24.09
2022-09-11T10:01:18.510Z,24.45
2022-09-11T10:03:44.949Z,24.69
2022-09-11T10:06:11.361Z,24.98
2022-09-11T10:08:38.316Z,24.63
2022-09-11T10:11:07.402Z,24.52
2022-09-11T10:13:37.641Z,24.36
2022-09-11T10:16:05.821Z,24.24
2022-09-11T10:18:35.773Z,24.16
2022-09-11T10:21:24.044Z,24.09
2022-09-11T10:24:02.527Z,24.16
2022-09-11T10:26:31.595Z,24.17
2022-09-11T10:29:13.098Z,24.65
2022-09-11T10:31:41.926Z,25.18
2022-09-11T10:34:16.246Z,25.44
2022-09-11T10:36:56.522Z,25.01
2022-09-11T10:39:26.102Z,25.01
2022-09-11T10:41:57.075Z,25.08
2022-09-11T10:44:24.174Z,25.16
2022-09-11T10:47:17.364Z,25.33
2022-09-11T10:49:45.548Z,25.57
2022-09-11T10:52:11.877Z,25.63
2022-09-11T10:55:05.821Z,25.65
2022-09-11T10:57:38.060Z,25.39
2022-09-11T11:00:08.387Z,25.15
2022-09-11T11:02:39.884Z,25.14
2022-09-11T11:05:19.675Z,24.96
2022-09-11T11:07:59.170Z,25.33
2022-09-11T11:10:50.903Z,25.42
2022-09-11T11:13:34.010Z,25.75
2022-09-11T11:16:25.123Z,25.77
2022-09-11T11:19:34.780Z,25.56
2022-09-11T11:22:03.945Z,25.76
2022-09-11T11:24:42.383Z,25.95
2022-09-11T11:27:46.306Z,25.35
2022-09-11T11:30:19.096Z,25.34
2022-09-11T11:32:48.690Z,25.29
2022-09-11T11:36:00.889Z,25.31
2022-09-11T11:38:33.162Z,25.37
2022-09-11T11:41:19.804Z,25.45
2022-09-11T11:43:48.809Z,25.36
2022-09-11T11:46:24.247Z,25.23
2022-09-11T11:48:55.971Z,25.33
2022-09-11T11:51:38.015Z,25.48
2022-09-11T11:54:14.538Z,25.41
2022-09-11T11:56:51.779Z,25.64
2022-09-11T11:59:31.935Z,25.69
2022-09-11T12:02:04.055Z,25.45
2022-09-11T12:04:49.655Z,25.50
2022-09-11T12:07:21.785Z,25.49
2022-09-11T12:09:49.895Z,25.58
2022-09-11T12:12:19.250Z,25.44
2022-09-11T12:14:55.220Z,25.40
2022-09-11T12:17:28.957Z,25.32
2022-09-11T12:20:13.442Z,25.75
2022-09-11T12:22:50.492Z,26.13
2022-09-11T12:25:19.834Z,26.53
2022-09-11T12:27:46.161Z,26.83
2022-09-11T12:30:18.544Z,26.77
2022-09-11T12:32:51.013Z,26.65
2022-09-11T12:35:29.627Z,26.45
2022-09-11T12:38:14.393Z,26.48
2022-09-11T12:41:14.040Z,26.37
2022-09-11T12:43:41.289Z,26.35
2022-09-11T12:46:34.684Z,26.42
2022-09-11T12:49:25.756Z,26.29
2022-09-11T12:51:59.476Z,26.32
2022-09-11T12:54:38.369Z,26.17
2022-09-11T12:57:19.406Z,26.36
2022-09-11T12:59:53.219Z,26.57
2022-09-11T13:02:36.809Z,26.44
2022-09-11T13:05:06.659Z,26.29
2022-09-11T13:07:43.061Z,26.46
2022-09-11T13:10:25.038Z,26.54
2022-09-11T13:12:53.929Z,26.47
2022-09-11T13:15:38.804Z,26.40
2022-09-11T13:18:25.078Z,26.47
2022-09-11T13:21:26.351Z,26.51
2022-09-11T13:23:53.491Z,26.43
2022-09-11T13:26:31.488Z,26.33
2022-09-11T13:28:59.809Z,26.38
2022-09-11T13:31:38.143Z,26.50
2022-09-11T13:34:13.058Z,26.48
2022-09-11T13:36:40.582Z,26.50
2022-09-11T13:39:08.477Z,26.51
2022-09-11T13:41:43.675Z,26.48
2022-09-11T13:44:29.966Z,26.63
2022-09-11T13:47:00.497Z,26.32
2022-09-11T13:49:36.331Z,26.18
2022-09-11T13:52:06.740Z,26.14
2022-09-11T13:54:34.743Z,26.18
2022-09-11T13:57:01.476Z,26.16
2022-09-11T13:59:44.478Z,26.35
2022-09-11T14:02:34.541Z,26.55
2022-09-11T14:05:20.727Z,26.55
2022-09-11T14:08:07.157Z,26.53
2022-09-11T14:10:42.879Z,26.68
2022-09-11T14:13:53.430Z,26.78
2022-09-11T14:16:21.883Z,26.72
2022-09-11T14:18:53.121Z,26.73
2022-09-11T14:21:25.870Z,26.75
2022-09-11T14:23:54.700Z,26.73
2022-09-11T14:26:39.044Z,26.65
2022-09-11T14:29:24.045Z,26.50
2022-09-11T14:31:52.124Z,26.63
2022-09-11T14:34:26.842Z,26.67
2022-09-11T14:36:59.240Z,26.64
2022-09-11T14:39:40.889Z,26.63
2022-09-11T14:42:16.113Z,26.55
2022-09-11T14:44:42.960Z,26.58
2022-09-11T14:47:17.293Z,26.64
2022-09-11T14:49:45.179Z,26.55
2022-09-11T14:52:20.918Z,26.51
2022-09-11T14:54:47.558Z,26.66
2022-09-11T14:57:20.623Z,26.75
2022-09-11T14:59:47.579Z,26.61
2022-09-11T15:02:19.722Z,26.53
2022-09-11T15:04:46.961Z,26.58
2022-09-11T15:07:15.526Z,26.71
2022-09-11T15:09:42.583Z,26.72
2022-09-11T15:12:10.900Z,26.65
2022-09-11T15:14:55.528Z,26.60
2022-09-11T15:17:25.082Z,26.60
2022-09-11T15:19:52.562Z,26.63
2022-09-11T15:22:19.074Z,26.77
2022-09-11T15:24:45.503Z,26.80
2022-09-11T15:27:11.924Z,26.68
2022-09-11T15:29:39.750Z,26.69
2022-09-11T15:32:07.535Z,26.64
2022-09-11T15:34:34.447Z,26.69
2022-09-11T15:37:00.853Z,26.62
2022-09-11T15:39:28.032Z,26.59
2022-09-11T15:41:56.005Z,26.63
2022-09-11T15:44:25.480Z,26.63
2022-09-11T15:46:54.309Z,26.66
2022-09-11T15:49:23.284Z,26.64
2022-09-11T15:51:51.382Z,26.53
2022-09-11T15:54:18.026Z,26.52
2022-09-11T15:56:44.693Z,26.59
2022-09-11T15:59:12.292Z,26.48
2022-09-11T16:01:40.804Z,26.45
2022-09-11T16:04:10.545Z,26.44
2022-09-11T16:06:40.258Z,26.41
2022-09-11T16:09:11.205Z,26.37
2022-09-11T16:11:39.899Z,26.39
2022-09-11T16:14:07.890Z,26.44
2022-09-11T16:16:34.940Z,26.52
2022-09-11T16:19:01.716Z,26.52
2022-09-11T16:21:28.647Z,26.45
2022-09-11T16:24:00.653Z,26.39
2022-09-11T16:26:29.022Z,26.35
2022-09-11T16:28:55.467Z,26.32
2022-09-11T16:31:21.972Z,26.27
2022-09-11T16:33:48.648Z,26.26
2022-09-11T16:36:20.826Z,26.21
2022-09-11T16:38:50.196Z,26.16
2022-09-11T16:41:19.766Z,26.13
2022-09-11T16:43:54.979Z,26.11
2022-09-11T16:46:24.106Z,26.08
2022-09-11T16:48:54.413Z,26.06
2022-09-11T16:51:21.630Z,26.00
2022-09-11T16:53:48.028Z,26.01
2022-09-11T16:56:17.289Z,26.00
2022-09-11T16:58:44.243Z,25.96
2022-09-11T17:01:16.709Z,25.92
2022-09-11T17:03:45.174Z,25.88
2022-09-11T17:06:14.542Z,25.84
2022-09-11T17:08:43.346Z,25.80
2022-09-11T17:11:13.766Z,25.74
2022-09-11T17:13:41.224Z,25.67
2022-09-11T17:16:15.412Z,25.63
2022-09-11T17:18:47.316Z,25.61
2022-09-11T17:21:13.805Z,25.58
2022-09-11T17:23:40.246Z,25.54
2022-09-11T17:26:12.512Z,25.51
2022-09-11T17:28:40.078Z,25.47
2022-09-11T17:31:08.949Z,25.41
2022-09-11T17:33:37.677Z,25.32
2022-09-11T17:36:05.245Z,25.27
2022-09-11T17:38:31.880Z,25.20
2022-09-11T17:40:59.796Z,25.11
2022-09-11T17:43:26.481Z,25.06
2022-09-11T17:45:59.666Z,25.00
2022-09-11T17:48:26.097Z,24.92
2022-09-11T17:51:00.159Z,24.84
2022-09-11T17:53:26.894Z,24.73
2022-09-11T17:55:59.817Z,24.66
2022-09-11T17:58:26.293Z,24.60
2022-09-11T18:00:53.014Z,24.61
2022-09-11T18:03:22.740Z,24.56
2022-09-11T18:05:49.127Z,24.48
2022-09-11T18:08:15.566Z,24.37
2022-09-11T18:10:51.188Z,24.23
2022-09-11T18:13:17.724Z,24.15
2022-09-11T18:15:44.100Z,24.09
2022-09-11T18:18:10.490Z,23.99
2022-09-11T18:20:36.947Z,23.95
2022-09-11T18:23:03.373Z,23.94
2022-09-11T18:25:30.125Z,23.93
2022-09-11T18:27:56.553Z,23.91
2022-09-11T18:30:22.996Z,23.73
2022-09-11T18:32:49.965Z,23.51
2022-09-11T18:35:17.316Z,23.35
2022-09-11T18:37:43.710Z,23.19
2022-09-11T18:40:10.146Z,23.06
2022-09-11T18:42:36.580Z,22.95
2022-09-11T18:45:03.137Z,22.84
2022-09-11T18:47:30.569Z,22.77
2022-09-11T18:49:59.593Z,22.72
2022-09-11T18:52:26.460Z,22.72
2022-09-11T18:54:52.864Z,22.63
2022-09-11T18:57:19.293Z,22.51
2022-09-11T18:59:45.676Z,22.43
2022-09-11T19:02:12.377Z,22.33
2022-09-11T19:04:39.127Z,22.16
2022-09-11T19:07:05.747Z,22.11
2022-09-11T19:09:32.116Z,22.07
2022-09-11T19:12:00.325Z,22.09
2022-09-11T19:14:27.157Z,22.08
2022-09-11T19:16:53.801Z,22.10
2022-09-11T19:19:20.346Z,22.12
2022-09-11T19:21:46.724Z,22.16
2022-09-11T19:24:13.155Z,22.19
2022-09-11T19:26:43.403Z,22.14
2022-09-11T19:29:13.288Z,22.10
2022-09-11T19:31:40.381Z,22.09
2022-09-11T19:34:08.338Z,22.05
2022-09-11T19:36:35.954Z,22.04
2022-09-11T19:39:03.684Z,22.07
2022-09-11T19:41:35.057Z,22.09
2022-09-11T19:44:03.157Z,22.02
2022-09-11T19:46:31.448Z,21.96
2022-09-11T19:49:00.665Z,21.92
2022-09-11T19:51:30.270Z,21.91
2022-09-11T19:54:00.201Z,21.96
2022-09-11T19:56:27.576Z,21.98
2022-09-11T19:58:54.688Z,21.98
2022-09-11T20:01:23.678Z,21.88
2022-09-11T20:03:53.277Z,21.76
2022-09-11T20:06:22.052Z,21.79
2022-09-11T20:08:49.842Z,21.85
2022-09-11T20:11:20.979Z,21.86
2022-09-11T20:13:47.533Z,21.76
2022-09-11T20:16:16.880Z,21.78
2022-09-11T20:18:44.422Z,21.84
2022-09-11T20:21:13.616Z,21.88
2022-09-11T20:23:40.256Z,21.84
2022-09-11T20:26:17.388Z,21.78
2022-09-11T20:28:45.580Z,21.72
2022-09-11T20:31:17.557Z,21.62
2022-09-11T20:33:45.218Z,21.61
2022-09-11T20:36:12.754Z,21.66
2022-09-11T20:38:39.221Z,21.61
2022-09-11T20:41:07.471Z,21.46
2022-09-11T20:43:33.966Z,21.43
2022-09-11T20:46:00.961Z,21.47
2022-09-11T20:48:27.679Z,21.54
2022-09-11T20:50:54.327Z,21.52
2022-09-11T20:53:22.861Z,21.58
2022-09-11T20:55:50.155Z,21.55
2022-09-11T20:58:16.601Z,21.51
2022-09-11T21:00:44.372Z,21.45
2022-09-11T21:03:10.808Z,21.37
2022-09-11T21:05:37.450Z,21.33
2022-09-11T21:08:04.436Z,21.29
2022-09-11T21:10:34.546Z,21.35
2022-09-11T21:13:00.941Z,21.21
2022-09-11T21:15:27.378Z,21.06
2022-09-11T21:17:53.764Z,20.88
2022-09-11T21:20:20.136Z,20.76
2022-09-11T21:22:46.568Z,20.72
2022-09-11T21:25:12.997Z,20.79
2022-09-11T21:27:39.393Z,20.75
2022-09-11T21:30:06.409Z,20.51
2022-09-11T21:32:33.383Z,20.22
2022-09-11T21:34:59.748Z,20.27
2022-09-11T21:37:26.232Z,20.29
2022-09-11T21:39:52.704Z,20.17
2022-09-11T21:42:19.127Z,20.07
2022-09-11T21:44:45.513Z,20.11
2022-09-11T21:47:11.909Z,19.97
2022-09-11T21:49:38.318Z,19.86
2022-09-11T21:52:04.744Z,20.06
2022-09-11T21:54:32.046Z,20.09
2022-09-11T21:56:58.563Z,20.14
2022-09-11T21:59:24.951Z,20.15
2022-09-11T22:01:51.481Z,20.20
2022-09-11T22:04:17.887Z,20.18
2022-09-11T22:06:44.308Z,20.19
2022-09-11T22:09:10.687Z,20.24
2022-09-11T22:11:37.382Z,20.12
2022-09-11T22:14:04.489Z,20.13
2022-09-11T22:16:30.997Z,20.17
2022-09-11T22:18:57.400Z,20.22
2022-09-11T22:21:24.123Z,20.12
2022-09-11T22:23:50.760Z,20.00
2022-09-11T22:26:20.133Z,19.92
2022-09-11T22:28:46.638Z,19.81
2022-09-11T22:31:24.557Z,19.62
2022-09-11T22:33:51.856Z,19.62
2022-09-11T22:36:20.905Z,19.62
2022-09-11T22:38:48.493Z,19.42
2022-09-11T22:41:15.232Z,19.22
2022-09-11T22:43:41.891Z,19.19
2022-09-11T22:46:08.536Z,19.23
2022-09-11T22:48:35.075Z,19.43
2022-09-11T22:51:01.964Z,19.54
2022-09-11T22:53:29.643Z,19.57
2022-09-11T22:55:56.397Z,19.61
2022-09-11T22:58:23.813Z,19.69
2022-09-11T23:00:51.721Z,19.68
2022-09-11T23:03:18.159Z,19.72
2022-09-11T23:06:03.536Z,19.66
2022-09-11T23:08:34.719Z,19.37
2022-09-11T23:11:05.177Z,19.33
2022-09-11T23:13:32.438Z,19.32
2022-09-11T23:15:59.236Z,19.36
2022-09-11T23:18:27.311Z,19.39
2022-09-11T23:20:55.655Z,19.47
2022-09-11T23:23:23.145Z,19.64
2022-09-11T23:25:49.609Z,19.61
2022-09-11T23:28:16.345Z,19.67
2022-09-11T23:30:42.753Z,19.76
2022-09-11T23:33:09.384Z,19.80
2022-09-11T23:35:39.907Z,19.74
2022-09-11T23:38:07.950Z,19.77
2022-09-11T23:40:34.700Z,19.90
2022-09-11T23:43:02.005Z,19.80
2022-09-11T23:45:29.243Z,19.80
2022-09-11T23:47:55.671Z,19.71
2022-09-11T23:50:22.107Z,19.72
2022-09-11T23:52:48.940Z,19.63
2022-09-11T23:55:17.332Z,19.64
2022-09-11T23:57:43.734Z,19.56
